createdAt,value
2023-08-23T00:01:23.172Z,100392.84
2023-08-23T00:03:48.358Z,100392.30
2023-08-23T00:06:17.560Z,100395.33
2023-08-23T00:08:46.426Z,100411.64
2023-08-23T00:11:15.068Z,100392.13
2023-08-23T00:13:45.098Z,100382.63
2023-08-23T00:16:13.854Z,100401.47
2023-08-23T00:18:43.503Z,100401.72
2023-08-23T00:21:12.347Z,100401.72
2023-08-23T00:23:41.833Z,100407.22
2023-08-23T00:26:13.330Z,100411.92
2023-08-23T00:28:43.053Z,100409.70
2023-08-23T00:31:12.751Z,100411.58
2023-08-23T00:33:42.847Z,100412.38
2023-08-23T00:36:11.822Z,100421.00
2023-08-23T00:38:41.133Z,100421.30
2023-08-23T00:41:10.669Z,100419.66
2023-08-23T00:43:39.369Z,100425.80
2023-08-23T00:46:09.211Z,100423.08
2023-08-23T00:48:38.790Z,100425.89
2023-08-23T00:51:09.398Z,100414.25
2023-08-23T00:53:38.817Z,100394.19
2023-08-23T00:56:08.446Z,100395.19
2023-08-23T00:58:38.628Z,100395.84
2023-08-23T01:01:07.820Z,100396.34
2023-08-23T01:03:36.953Z,100389.61
2023-08-23T01:06:32.440Z,100384.86
2023-08-23T01:09:44.638Z,100391.45
2023-08-23T01:12:37.125Z,100384.34
2023-08-23T01:15:12.315Z,100386.17
2023-08-23T01:17:44.670Z,100388.89
2023-08-23T01:20:13.827Z,100394.19
2023-08-23T01:22:54.768Z,100393.09
2023-08-23T01:25:23.445Z,100389.93
2023-08-23T01:27:56.937Z,100383.45
2023-08-23T01:30:26.329Z,100380.63
2023-08-23T01:33:03.727Z,100386.22
2023-08-23T01:35:38.709Z,100378.80
2023-08-23T01:38:08.127Z,100384.63
2023-08-23T01:40:37.804Z,100383.55
2023-08-23T01:43:06.524Z,100386.86
2023-08-23T01:45:35.485Z,100387.05
2023-08-23T01:48:05.991Z,100386.95
2023-08-23T01:50:35.640Z,100380.33
2023-08-23T01:53:05.550Z,100372.60
2023-08-23T01:55:35.065Z,100378.55
2023-08-23T01:58:05.649Z,100381.66
2023-08-23T02:00:34.722Z,100375.08
2023-08-23T02:03:06.249Z,100376.27
2023-08-23T02:05:35.161Z,100370.47
2023-08-23T02:08:04.372Z,100397.19
2023-08-23T02:10:34.866Z,100387.23
2023-08-23T02:13:06.222Z,100385.06
2023-08-23T02:15:35.440Z,100385.65
2023-08-23T02:18:06.323Z,100392.87
2023-08-23T02:20:36.181Z,100386.53
2023-08-23T02:23:05.794Z,100394.66
2023-08-23T02:25:34.948Z,100390.20
2023-08-23T02:28:05.577Z,100389.11
2023-08-23T02:30:34.232Z,100395.20
2023-08-23T02:33:04.738Z,100380.79
2023-08-23T02:35:34.391Z,100386.34
2023-08-23T02:38:03.282Z,100389.11
2023-08-23T02:40:33.284Z,100388.86
2023-08-23T02:43:03.597Z,100373.65
2023-08-23T02:45:34.478Z,100372.80
2023-08-23T02:48:05.012Z,100366.13
2023-08-23T02:50:34.282Z,100363.84
2023-08-23T02:53:03.465Z,100371.28
2023-08-23T02:55:37.756Z,100385.95
2023-08-23T02:58:07.854Z,100399.81
2023-08-23T03:00:37.597Z,100411.11
2023-08-23T03:03:06.965Z,100417.61
2023-08-23T03:05:36.182Z,100400.08
2023-08-23T03:08:05.403Z,100385.92
2023-08-23T03:10:35.191Z,100395.08
2023-08-23T03:13:05.844Z,100416.97
2023-08-23T03:15:35.499Z,100430.54
2023-08-23T03:18:05.266Z,100417.52
2023-08-23T03:20:35.315Z,100424.45
2023-08-23T03:23:06.775Z,100416.72
2023-08-23T03:25:36.302Z,100400.68
2023-08-23T03:28:05.814Z,100404.84
2023-08-23T03:30:34.574Z,100410.88
2023-08-23T03:33:04.085Z,100413.06
2023-08-23T03:35:34.016Z,100414.09
2023-08-23T03:38:04.318Z,100423.40
2023-08-23T03:40:40.485Z,100421.42
2023-08-23T03:43:10.060Z,100419.19
2023-08-23T03:45:49.878Z,100411.17
2023-08-23T03:48:24.593Z,100415.03
2023-08-23T03:50:53.869Z,100404.44
2023-08-23T03:53:24.521Z,100411.06
2023-08-23T03:55:55.688Z,100408.00
2023-08-23T03:58:25.011Z,100411.96
2023-08-23T04:00:54.813Z,100406.17
2023-08-23T04:03:25.926Z,100422.91
2023-08-23T04:05:54.913Z,100418.25
2023-08-23T04:08:24.233Z,100425.84
2023-08-23T04:10:53.636Z,100422.56
2023-08-23T04:13:24.151Z,100430.39
2023-08-23T04:15:53.415Z,100431.91
2023-08-23T04:18:22.700Z,100423.69
2023-08-23T04:21:01.457Z,100413.83
2023-08-23T04:23:31.320Z,100406.14
2023-08-23T04:26:00.898Z,100398.21
2023-08-23T04:28:30.411Z,100396.87
2023-08-23T04:31:04.014Z,100404.73
2023-08-23T04:33:37.053Z,100398.56
2023-08-23T04:36:07.035Z,100399.87
2023-08-23T04:38:35.897Z,100402.30
2023-08-23T04:41:05.798Z,100412.19
2023-08-23T04:43:36.511Z,100407.05
2023-08-23T04:46:07.989Z,100399.68
2023-08-23T04:48:37.818Z,100404.00
2023-08-23T04:51:10.398Z,100414.39
2023-08-23T04:53:39.756Z,100402.55
2023-08-23T04:56:09.410Z,100396.55
2023-08-23T04:58:39.629Z,100405.64
2023-08-23T05:01:09.177Z,100409.07
2023-08-23T05:03:40.028Z,100413.31
2023-08-23T05:06:10.330Z,100418.94
2023-08-23T05:08:40.549Z,100425.12
2023-08-23T05:11:15.213Z,100423.79
2023-08-23T05:13:44.872Z,100415.55
2023-08-23T05:16:14.295Z,100414.52
2023-08-23T05:18:43.874Z,100408.46
2023-08-23T05:21:35.322Z,100412.14
2023-08-23T05:24:05.046Z,100418.86
2023-08-23T05:26:35.322Z,100416.46
2023-08-23T05:29:04.547Z,100417.63
2023-08-23T05:31:35.127Z,100425.19
2023-08-23T05:34:04.398Z,100424.44
2023-08-23T05:36:34.361Z,100425.36
2023-08-23T05:39:04.433Z,100415.41
2023-08-23T05:41:33.739Z,100417.45
2023-08-23T05:44:03.042Z,100416.69
2023-08-23T05:46:32.413Z,100410.06
2023-08-23T05:49:03.122Z,100405.69
2023-08-23T05:51:33.191Z,100411.94
2023-08-23T05:54:04.069Z,100408.67
2023-08-23T05:56:33.366Z,100412.36
2023-08-23T05:59:02.869Z,100409.37
2023-08-23T06:01:32.316Z,100405.31
2023-08-23T06:04:01.774Z,100409.55
2023-08-23T06:06:31.800Z,100407.97
2023-08-23T06:09:04.067Z,100415.56
2023-08-23T06:11:33.810Z,100410.59
2023-08-23T06:14:22.039Z,100412.58
2023-08-23T06:16:52.619Z,100414.56
2023-08-23T06:19:22.445Z,100412.94
2023-08-23T06:21:51.702Z,100402.09
2023-08-23T06:24:21.540Z,100404.70
2023-08-23T06:26:51.471Z,100401.38
2023-08-23T06:29:21.702Z,100409.48
2023-08-23T06:31:51.725Z,100406.98
2023-08-23T06:34:22.563Z,100407.55
2023-08-23T06:36:52.144Z,100410.34
2023-08-23T06:39:32.757Z,100404.47
2023-08-23T06:41:54.283Z,100405.32
2023-08-23T06:44:23.876Z,100400.86
2023-08-23T06:46:52.881Z,100400.58
2023-08-23T06:49:22.709Z,100407.55
2023-08-23T06:51:52.202Z,100396.09
2023-08-23T06:54:22.398Z,100401.69
2023-08-23T06:56:50.929Z,100399.47
2023-08-23T06:59:21.457Z,100400.89
2023-08-23T07:01:50.391Z,100394.77
2023-08-23T07:04:20.567Z,100396.23
2023-08-23T07:06:49.364Z,100394.23
2023-08-23T07:09:18.513Z,100399.42
2023-08-23T07:11:48.717Z,100397.86
2023-08-23T07:14:17.642Z,100394.50
2023-08-23T07:16:46.263Z,100393.81
2023-08-23T07:19:15.515Z,100390.09
2023-08-23T07:21:45.031Z,100396.64
2023-08-23T07:24:14.746Z,100388.91
2023-08-23T07:26:45.462Z,100385.17
2023-08-23T07:29:16.160Z,100387.66
2023-08-23T07:31:46.688Z,100395.73
2023-08-23T07:34:17.345Z,100383.00
2023-08-23T07:36:46.266Z,100381.52
2023-08-23T07:39:16.351Z,100385.89
2023-08-23T07:41:46.462Z,100391.26
2023-08-23T07:44:15.171Z,100393.34
2023-08-23T07:46:44.513Z,100390.48
2023-08-23T07:49:15.653Z,100393.92
2023-08-23T07:51:45.255Z,100396.42
2023-08-23T07:54:15.014Z,100391.59
2023-08-23T07:56:45.074Z,100385.33
2023-08-23T07:59:14.497Z,100383.25
2023-08-23T08:01:44.642Z,100391.70
2023-08-23T08:04:14.890Z,100396.87
2023-08-23T08:06:44.424Z,100396.23
2023-08-23T08:09:14.802Z,100392.77
2023-08-23T08:11:44.683Z,100386.81
2023-08-23T08:14:15.209Z,100390.47
2023-08-23T08:16:45.935Z,100386.25
2023-08-23T08:19:14.652Z,100379.39
2023-08-23T08:21:45.699Z,100383.28
2023-08-23T08:24:15.785Z,100382.62
2023-08-23T08:26:44.447Z,100390.12
2023-08-23T08:29:14.006Z,100386.84
2023-08-23T08:31:42.694Z,100384.11
2023-08-23T08:34:11.267Z,100387.27
2023-08-23T08:36:41.517Z,100382.72
2023-08-23T08:39:10.401Z,100392.78
2023-08-23T08:41:41.807Z,100382.52
2023-08-23T08:44:12.334Z,100387.16
2023-08-23T08:46:43.019Z,100382.91
2023-08-23T08:49:12.514Z,100380.05
2023-08-23T08:51:42.852Z,100383.25
2023-08-23T08:54:12.123Z,100378.95
2023-08-23T08:56:41.311Z,100373.00
2023-08-23T08:59:11.096Z,100379.80
2023-08-23T09:01:40.113Z,100375.17
2023-08-23T09:04:09.262Z,100369.94
2023-08-23T09:06:38.358Z,100374.27
2023-08-23T09:09:08.403Z,100370.60
2023-08-23T09:11:37.824Z,100363.20
2023-08-23T09:14:21.623Z,100363.52
2023-08-23T09:16:50.477Z,100363.88
2023-08-23T09:19:20.273Z,100370.14
2023-08-23T09:21:52.317Z,100371.75
2023-08-23T09:24:22.219Z,100379.86
2023-08-23T09:26:50.980Z,100379.86
2023-08-23T09:29:20.602Z,100382.69
2023-08-23T09:31:49.740Z,100382.52
2023-08-23T09:34:18.977Z,100375.44
2023-08-23T09:36:48.514Z,100376.35
2023-08-23T09:39:19.219Z,100369.55
2023-08-23T09:42:00.724Z,100358.87
2023-08-23T09:44:21.137Z,100355.27
2023-08-23T09:46:50.319Z,100366.29
2023-08-23T09:49:19.114Z,100364.67
2023-08-23T09:51:49.255Z,100370.15
2023-08-23T09:54:45.920Z,100379.95
2023-08-23T09:57:09.206Z,100369.84
2023-08-23T09:59:38.947Z,100370.38
2023-08-23T10:02:07.682Z,100370.55
2023-08-23T10:04:39.120Z,100362.73
2023-08-23T10:07:09.090Z,100365.36
2023-08-23T10:09:38.297Z,100362.86
2023-08-23T10:12:09.235Z,100356.67
2023-08-23T10:14:50.343Z,100354.30
2023-08-23T10:17:20.976Z,100354.04
2023-08-23T10:19:50.906Z,100346.41
2023-08-23T10:22:20.687Z,100346.41
2023-08-23T10:24:51.099Z,100347.59
2023-08-23T10:27:21.476Z,100345.57
2023-08-23T10:29:51.889Z,100351.36
2023-08-23T10:32:21.138Z,100345.30
2023-08-23T10:34:50.956Z,100327.64
2023-08-23T10:37:26.365Z,100325.45
2023-08-23T10:40:02.778Z,100333.97
2023-08-23T10:42:32.633Z,100332.34
2023-08-23T10:45:05.380Z,100328.17
2023-08-23T10:47:38.257Z,100328.48
2023-08-23T10:50:08.485Z,100324.57
2023-08-23T10:52:38.747Z,100324.27
2023-08-23T10:55:08.895Z,100318.37
2023-08-23T10:57:37.836Z,100317.81
2023-08-23T11:00:08.482Z,100318.37
2023-08-23T11:02:38.394Z,100308.94
2023-08-23T11:05:09.010Z,100305.77
2023-08-23T11:07:38.154Z,100298.09
2023-08-23T11:10:10.344Z,100293.00
2023-08-23T11:12:39.903Z,100303.09
2023-08-23T11:15:09.897Z,100298.31
2023-08-23T11:17:39.886Z,100292.41
2023-08-23T11:20:11.268Z,100302.78
2023-08-23T11:22:41.180Z,100296.28
2023-08-23T11:25:10.768Z,100291.66
2023-08-23T11:27:40.220Z,100292.05
2023-08-23T11:30:11.357Z,100292.27
2023-08-23T11:32:39.891Z,100291.70
2023-08-23T11:35:09.995Z,100288.93
2023-08-23T11:37:38.615Z,100286.69
2023-08-23T11:40:10.951Z,100284.45
2023-08-23T11:42:40.755Z,100278.83
2023-08-23T11:45:11.625Z,100287.84
2023-08-23T11:47:41.575Z,100281.59
2023-08-23T11:50:11.743Z,100280.66
2023-08-23T11:52:42.259Z,100277.53
2023-08-23T11:55:11.715Z,100276.12
2023-08-23T11:57:40.354Z,100279.98
2023-08-23T12:00:11.292Z,100269.25
2023-08-23T12:02:40.866Z,100275.97
2023-08-23T12:05:14.649Z,100272.80
2023-08-23T12:07:44.879Z,100264.88
2023-08-23T12:10:13.837Z,100267.02
2023-08-23T12:12:43.243Z,100264.52
2023-08-23T12:15:12.367Z,100264.88
2023-08-23T12:17:42.520Z,100262.22
2023-08-23T12:20:12.787Z,100263.16
2023-08-23T12:22:47.591Z,100265.44
2023-08-23T12:25:17.754Z,100264.51
2023-08-23T12:27:48.137Z,100266.60
2023-08-23T12:30:19.284Z,100262.12
2023-08-23T12:32:48.194Z,100250.61
2023-08-23T12:35:16.961Z,100245.81
2023-08-23T12:37:46.923Z,100253.32
2023-08-23T12:40:17.094Z,100248.95
2023-08-23T12:42:46.256Z,100250.77
2023-08-23T12:45:15.794Z,100257.16
2023-08-23T12:47:44.784Z,100246.29
2023-08-23T12:50:14.353Z,100248.16
2023-08-23T12:52:43.576Z,100244.98
2023-08-23T12:55:13.072Z,100245.97
2023-08-23T12:57:42.230Z,100242.70
2023-08-23T13:00:29.146Z,100248.68
2023-08-23T13:02:45.164Z,100253.52
2023-08-23T13:05:14.756Z,100255.33
2023-08-23T13:07:43.218Z,100249.02
2023-08-23T13:10:14.120Z,100248.23
2023-08-23T13:12:44.979Z,100239.00
2023-08-23T13:15:15.090Z,100236.47
2023-08-23T13:17:44.782Z,100241.55
2023-08-23T13:20:13.688Z,100232.30
2023-08-23T13:22:42.430Z,100236.83
2023-08-23T13:25:12.385Z,100225.46
2023-08-23T13:27:41.416Z,100228.09
2023-08-23T13:30:12.119Z,100224.50
2023-08-23T13:32:41.372Z,100228.23
2023-08-23T13:35:10.659Z,100220.16
2023-08-23T13:37:39.312Z,100221.61
2023-08-23T13:40:12.476Z,100225.87
2023-08-23T13:42:42.875Z,100232.63
2023-08-23T13:45:12.557Z,100226.48
2023-08-23T13:47:41.679Z,100221.17
2023-08-23T13:50:12.267Z,100220.91
2023-08-23T13:52:41.074Z,100214.72
2023-08-23T13:55:10.974Z,100214.45
2023-08-23T13:57:39.884Z,100210.50
2023-08-23T14:00:09.780Z,100213.80
2023-08-23T14:02:38.443Z,100207.83
2023-08-23T14:05:08.888Z,100204.17
2023-08-23T14:07:38.930Z,100204.70
2023-08-23T14:10:09.204Z,100199.61
2023-08-23T14:12:37.899Z,100202.95
2023-08-23T14:15:08.223Z,100202.28
2023-08-23T14:17:36.826Z,100195.42
2023-08-23T14:20:09.009Z,100198.55
2023-08-23T14:22:38.831Z,100199.69
2023-08-23T14:25:09.367Z,100206.14
2023-08-23T14:27:39.016Z,100192.87
2023-08-23T14:30:10.794Z,100197.27
2023-08-23T14:32:39.623Z,100201.95
2023-08-23T14:35:10.898Z,100200.50
2023-08-23T14:37:39.962Z,100206.11
2023-08-23T14:40:12.522Z,100208.09
2023-08-23T14:42:43.481Z,100206.37
2023-08-23T14:45:13.419Z,100203.52
2023-08-23T14:47:42.358Z,100201.53
2023-08-23T14:50:11.436Z,100201.75
2023-08-23T14:52:41.611Z,100195.51
2023-08-23T14:55:13.573Z,100195.20
2023-08-23T14:57:44.371Z,100196.65
2023-08-23T15:00:15.189Z,100196.96
2023-08-23T15:02:44.433Z,100194.20
2023-08-23T15:05:13.664Z,100194.77
2023-08-23T15:07:43.230Z,100189.20
2023-08-23T15:10:12.555Z,100187.00
2023-08-23T15:12:45.906Z,100182.55
2023-08-23T15:15:17.162Z,100183.12
2023-08-23T15:17:47.315Z,100183.64
2023-08-23T15:20:16.965Z,100179.87
2023-08-23T15:22:47.293Z,100180.92
2023-08-23T15:25:16.405Z,100189.88
2023-08-23T15:27:45.502Z,100183.58
2023-08-23T15:30:14.730Z,100182.02
2023-08-23T15:32:45.366Z,100191.38
2023-08-23T15:35:14.219Z,100183.61
2023-08-23T15:37:43.961Z,100194.64
2023-08-23T15:40:13.041Z,100200.35
2023-08-23T15:42:42.826Z,100196.53
2023-08-23T15:45:12.233Z,100195.76
2023-08-23T15:47:41.218Z,100208.75
2023-08-23T15:50:11.110Z,100204.36
2023-08-23T15:52:40.064Z,100201.06
2023-08-23T15:55:10.889Z,100210.67
2023-08-23T15:57:41.455Z,100209.62
2023-08-23T16:00:12.838Z,100208.59
2023-08-23T16:02:41.928Z,100208.65
2023-08-23T16:05:11.805Z,100210.39
2023-08-23T16:07:42.354Z,100215.22
2023-08-23T16:10:12.797Z,100215.25
2023-08-23T16:12:41.676Z,100215.33
2023-08-23T16:15:12.429Z,100217.61
2023-08-23T16:17:42.368Z,100211.20
2023-08-23T16:20:11.987Z,100217.95
2023-08-23T16:22:41.435Z,100223.33
2023-08-23T16:25:11.675Z,100218.06
2023-08-23T16:27:40.303Z,100222.01
2023-08-23T16:30:11.017Z,100221.78
2023-08-23T16:32:40.824Z,100224.62
2023-08-23T16:35:11.092Z,100223.25
2023-08-23T16:37:41.840Z,100227.80
2023-08-23T16:40:12.522Z,100225.02
2023-08-23T16:42:45.685Z,100233.20
2023-08-23T16:45:15.924Z,100235.21
2023-08-23T16:47:45.491Z,100234.14
2023-08-23T16:50:14.373Z,100237.81
2023-08-23T16:52:43.339Z,100237.55
2023-08-23T16:55:12.969Z,100235.34
2023-08-23T16:57:42.448Z,100245.76
2023-08-23T17:00:14.305Z,100250.56
2023-08-23T17:02:45.640Z,100247.49
2023-08-23T17:05:15.396Z,100248.09
2023-08-23T17:07:44.618Z,100252.89
2023-08-23T17:10:14.121Z,100261.06
2023-08-23T17:12:43.332Z,100251.61
2023-08-23T17:15:13.883Z,100256.41
2023-08-23T17:17:43.676Z,100258.14
2023-08-23T17:20:14.457Z,100251.42
2023-08-23T17:22:44.480Z,100261.26
2023-08-23T17:25:14.347Z,100257.37
2023-08-23T17:27:44.036Z,100266.65
2023-08-23T17:30:14.555Z,100268.91
2023-08-23T17:32:44.634Z,100263.63
2023-08-23T17:35:13.893Z,100267.59
2023-08-23T17:37:44.152Z,100270.98
2023-08-23T17:40:14.822Z,100275.48
2023-08-23T17:42:45.102Z,100276.59
2023-08-23T17:45:14.984Z,100278.30
2023-08-23T17:47:43.892Z,100282.80
2023-08-23T17:50:13.163Z,100288.42
2023-08-23T17:52:42.363Z,100287.31
2023-08-23T17:55:13.218Z,100290.43
2023-08-23T17:57:42.578Z,100289.91
2023-08-23T18:00:21.394Z,100292.75
2023-08-23T18:02:53.501Z,100294.17
2023-08-23T18:05:22.954Z,100292.27
2023-08-23T18:07:52.880Z,100291.45
2023-08-23T18:10:21.329Z,100299.04
2023-08-23T18:12:51.918Z,100296.55
2023-08-23T18:15:21.577Z,100299.34
2023-08-23T18:17:51.634Z,100307.48
2023-08-23T18:20:20.925Z,100309.75
2023-08-23T18:22:50.428Z,100308.91
2023-08-23T18:25:20.269Z,100315.64
2023-08-23T18:27:50.726Z,100314.53
2023-08-23T18:30:20.575Z,100312.02
2023-08-23T18:32:50.057Z,100313.73
2023-08-23T18:35:21.093Z,100314.00
2023-08-23T18:37:50.272Z,100327.45
2023-08-23T18:40:20.990Z,100315.70
2023-08-23T18:42:50.989Z,100321.33
2023-08-23T18:45:20.848Z,100322.20
2023-08-23T18:47:50.401Z,100326.13
2023-08-23T18:50:20.269Z,100331.20
2023-08-23T18:52:51.525Z,100333.20
2023-08-23T18:55:20.810Z,100338.83
2023-08-23T18:57:49.637Z,100333.55
2023-08-23T19:00:19.618Z,100338.86
2023-08-23T19:02:48.615Z,100335.50
2023-08-23T19:05:19.853Z,100339.98
2023-08-23T19:07:50.613Z,100337.48
2023-08-23T19:10:19.888Z,100344.77
2023-08-23T19:12:48.908Z,100339.74
2023-08-23T19:15:18.917Z,100338.36
2023-08-23T19:17:49.655Z,100343.13
2023-08-23T19:20:18.332Z,100349.01
2023-08-23T19:22:47.949Z,100354.60
2023-08-23T19:25:18.070Z,100351.25
2023-08-23T19:27:49.096Z,100353.77
2023-08-23T19:30:21.611Z,100355.45
2023-08-23T19:32:51.784Z,100359.64
2023-08-23T19:35:20.879Z,100362.16
2023-08-23T19:37:51.516Z,100363.27
2023-08-23T19:40:20.650Z,100368.86
2023-08-23T19:42:50.445Z,100374.17
2023-08-23T19:45:19.768Z,100376.96
2023-08-23T19:47:49.842Z,100363.83
2023-08-23T19:50:19.873Z,100364.91
2023-08-23T19:52:50.162Z,100366.00
2023-08-23T19:55:19.939Z,100374.10
2023-08-23T19:57:49.009Z,100379.41
2023-08-23T20:00:18.942Z,100374.66
2023-08-23T20:02:49.943Z,100377.98
2023-08-23T20:05:20.182Z,100375.73
2023-08-23T20:07:49.801Z,100381.30
2023-08-23T20:10:19.922Z,100375.16
2023-08-23T20:12:49.053Z,100375.98
2023-08-23T20:15:18.475Z,100373.17
2023-08-23T20:17:47.819Z,100379.77
2023-08-23T20:20:18.075Z,100380.03
2023-08-23T20:22:47.354Z,100373.58
2023-08-23T20:25:18.202Z,100378.28
2023-08-23T20:27:48.596Z,100382.73
2023-08-23T20:30:18.303Z,100386.88
2023-08-23T20:32:49.656Z,100384.07
2023-08-23T20:35:18.625Z,100385.17
2023-08-23T20:37:50.742Z,100386.82
2023-08-23T20:40:21.581Z,100384.58
2023-08-23T20:42:51.146Z,100384.50
2023-08-23T20:45:22.943Z,100379.18
2023-08-23T20:47:52.453Z,100384.19
2023-08-23T20:50:22.579Z,100387.80
2023-08-23T20:52:52.893Z,100387.77
2023-08-23T20:55:22.000Z,100391.64
2023-08-23T20:57:53.552Z,100387.16
2023-08-23T21:00:23.540Z,100393.80
2023-08-23T21:02:53.247Z,100392.91
2023-08-23T21:05:22.722Z,100393.15
2023-08-23T21:07:52.835Z,100390.05
2023-08-23T21:10:22.896Z,100393.36
2023-08-23T21:12:52.334Z,100393.56
2023-08-23T21:15:22.150Z,100400.48
2023-08-23T21:17:52.163Z,100396.49
2023-08-23T21:20:21.458Z,100398.40
2023-08-23T21:22:50.570Z,100398.92
2023-08-23T21:25:20.635Z,100394.98
2023-08-23T21:27:50.638Z,100403.03
2023-08-23T21:30:20.511Z,100395.47
2023-08-23T21:32:49.476Z,100404.64
2023-08-23T21:35:18.473Z,100407.39
2023-08-23T21:37:48.364Z,100404.33
2023-08-23T21:40:18.505Z,100402.09
2023-08-23T21:42:48.627Z,100405.66
2023-08-23T21:45:18.865Z,100403.03
2023-08-23T21:47:47.490Z,100406.61
2023-08-23T21:50:16.956Z,100407.94
2023-08-23T21:52:46.113Z,100410.14
2023-08-23T21:55:16.031Z,100412.90
2023-08-23T21:57:45.575Z,100406.98
2023-08-23T22:00:15.804Z,100407.19
2023-08-23T22:02:44.550Z,100409.97
2023-08-23T22:05:14.681Z,100404.66
2023-08-23T22:07:44.591Z,100404.34
2023-08-23T22:10:13.777Z,100407.59
2023-08-23T22:12:42.661Z,100404.16
2023-08-23T22:15:12.728Z,100406.69
2023-08-23T22:17:43.050Z,100402.19
2023-08-23T22:20:15.285Z,100405.75
2023-08-23T22:22:44.239Z,100404.84
2023-08-23T22:25:13.932Z,100400.03
2023-08-23T22:27:42.908Z,100405.23
2023-08-23T22:30:12.769Z,100398.80
2023-08-23T22:32:42.313Z,100405.16
2023-08-23T22:35:12.656Z,100408.45
2023-08-23T22:37:42.259Z,100408.09
2023-08-23T22:40:12.462Z,100407.08
2023-08-23T22:42:41.707Z,100402.03
2023-08-23T22:45:11.390Z,100400.31
2023-08-23T22:47:40.982Z,100401.05
2023-08-23T22:50:10.960Z,100407.41
2023-08-23T22:52:39.481Z,100409.63
2023-08-23T22:55:10.534Z,100404.03
2023-08-23T22:57:41.955Z,100409.05
2023-08-23T23:00:11.813Z,100407.88
2023-08-23T23:02:44.052Z,100400.05
2023-08-23T23:05:14.295Z,100399.75
2023-08-23T23:07:44.913Z,100402.23
2023-08-23T23:10:15.128Z,100400.30
2023-08-23T23:12:44.204Z,100402.75
2023-08-23T23:15:16.665Z,100400.52
2023-08-23T23:17:47.653Z,100401.28
2023-08-23T23:20:17.493Z,100409.03
2023-08-23T23:22:47.129Z,100395.44
2023-08-23T23:25:16.211Z,100400.70
2023-08-23T23:27:45.682Z,100412.02
2023-08-23T23:30:16.698Z,100410.55
2023-08-23T23:32:46.764Z,100411.56
2023-08-23T23:35:16.546Z,100410.72
2023-08-23T23:37:46.766Z,100410.42
2023-08-23T23:40:16.238Z,100408.78
2023-08-23T23:42:45.233Z,100416.81
2023-08-23T23:45:15.739Z,100418.41
2023-08-23T23:47:44.732Z,100419.80
2023-08-23T23:50:13.308Z,100423.97
2023-08-23T23:52:42.629Z,100418.88
2023-08-23T23:55:11.364Z,100424.94
2023-08-23T23:57:40.219Z,100421.88
